createdAt,value
2022-08-05T00:00:06.849Z,29.61
2022-08-05T00:01:20.549Z,29.61
2022-08-05T00:02:07.577Z,29.60
2022-08-05T00:03:07.456Z,29.60
2022-08-05T00:04:08.364Z,29.59
2022-08-05T00:05:06.780Z,29.42
2022-08-05T00:06:27.876Z,29.54
2022-08-05T00:07:27.003Z,29.45
2022-08-05T00:08:32.654Z,29.47
2022-08-05T00:09:13.109Z,29.51
2022-08-05T00:10:06.712Z,29.44
2022-08-05T00:11:07.534Z,29.44
2022-08-05T00:12:06.726Z,29.41
2022-08-05T00:13:06.680Z,29.47
2022-08-05T00:14:12.582Z,29.42
2022-08-05T00:15:54.280Z,29.47
2022-08-05T00:16:06.638Z,29.50
2022-08-05T00:17:19.356Z,29.47
2022-08-05T00:18:06.605Z,29.42
2022-08-05T00:19:06.597Z,29.45
2022-08-05T00:20:06.581Z,29.41
2022-08-05T00:21:06.926Z,29.45
2022-08-05T00:22:06.577Z,29.39
2022-08-05T00:23:12.829Z,29.41
2022-08-05T00:24:11.002Z,29.45
2022-08-05T00:25:08.409Z,29.41
2022-08-05T00:26:06.523Z,29.42
2022-08-05T00:27:10.539Z,29.38
2022-08-05T00:28:07.448Z,29.44
2022-08-05T00:29:06.509Z,29.41
2022-08-05T00:30:11.263Z,29.41
2022-08-05T00:31:07.574Z,29.38
2022-08-05T00:32:13.476Z,29.32
2022-08-05T00:33:06.409Z,29.35
2022-08-05T00:34:55.423Z,29.32
2022-08-05T00:35:07.608Z,29.38
2022-08-05T00:36:16.370Z,29.31
2022-08-05T00:37:20.097Z,29.35
2022-08-05T00:38:06.367Z,29.38
2022-08-05T00:39:06.974Z,29.32
2022-08-05T00:40:09.400Z,29.35
2022-08-05T00:41:06.307Z,29.34
2022-08-05T00:42:06.313Z,29.39
2022-08-05T00:43:07.454Z,29.31
2022-08-05T00:44:06.960Z,29.24
2022-08-05T00:45:08.409Z,29.31
2022-08-05T00:46:06.248Z,29.35
2022-08-05T00:47:06.245Z,29.31
2022-08-05T00:48:06.526Z,29.23
2022-08-05T00:49:06.202Z,29.26
2022-08-05T00:50:06.234Z,29.26
2022-08-05T00:51:08.858Z,29.23
2022-08-05T00:52:06.177Z,29.19
2022-08-05T00:53:09.801Z,29.26
2022-08-05T00:54:06.176Z,29.12
2022-08-05T00:55:06.123Z,29.19
2022-08-05T00:56:07.981Z,29.16
2022-08-05T00:57:06.104Z,29.10
2022-08-05T00:58:06.123Z,29.16
2022-08-05T00:59:06.936Z,29.14
2022-08-05T01:00:06.051Z,29.14
2022-08-05T01:01:09.011Z,29.12
2022-08-05T01:02:06.038Z,29.12
2022-08-05T01:03:07.907Z,29.04
2022-08-05T01:04:11.827Z,29.07
2022-08-05T01:05:10.171Z,29.04
2022-08-05T01:06:05.992Z,29.08
2022-08-05T01:07:05.972Z,28.97
2022-08-05T01:08:40.259Z,29.04
2022-08-05T01:09:05.933Z,28.98
2022-08-05T01:10:05.937Z,28.97
2022-08-05T01:11:05.921Z,28.94
2022-08-05T01:12:18.127Z,28.97
2022-08-05T01:13:13.261Z,28.93
2022-08-05T01:14:08.808Z,29.01
2022-08-05T01:15:05.867Z,28.96
2022-08-05T01:16:05.856Z,28.91
2022-08-05T01:17:05.836Z,28.93
2022-08-05T01:18:05.827Z,28.84
2022-08-05T01:19:05.909Z,28.84
2022-08-05T01:20:06.488Z,28.86
2022-08-05T01:21:05.781Z,28.85
2022-08-05T01:22:05.768Z,28.79
2022-08-05T01:23:15.223Z,28.76
2022-08-05T01:24:13.304Z,28.81
2022-08-05T01:25:06.491Z,28.75
2022-08-05T01:26:05.707Z,28.74
2022-08-05T01:27:19.222Z,28.75
2022-08-05T01:28:05.697Z,28.76
2022-08-05T01:29:05.696Z,28.69
2022-08-05T01:30:17.854Z,28.69
2022-08-05T01:31:05.643Z,28.67
2022-08-05T01:32:05.629Z,28.75
2022-08-05T01:33:06.085Z,28.74
2022-08-05T01:34:05.619Z,28.72
2022-08-05T01:35:10.647Z,28.72
2022-08-05T01:36:05.578Z,28.75
2022-08-05T01:37:05.561Z,28.72
2022-08-05T01:38:05.579Z,28.70
2022-08-05T01:39:05.616Z,28.69
2022-08-05T01:40:06.555Z,28.72
2022-08-05T01:41:05.516Z,28.70
2022-08-05T01:42:05.493Z,28.67
2022-08-05T01:43:05.502Z,28.66
2022-08-05T01:44:05.494Z,28.57
2022-08-05T01:45:08.190Z,28.59
2022-08-05T01:46:07.338Z,28.66
2022-08-05T01:47:05.425Z,28.60
2022-08-05T01:48:05.434Z,28.57
2022-08-05T01:49:22.939Z,28.54
2022-08-05T01:50:05.947Z,28.66
2022-08-05T01:51:12.170Z,28.54
2022-08-05T01:52:17.654Z,28.60
2022-08-05T01:53:05.345Z,28.52
2022-08-05T01:54:05.345Z,28.62
2022-08-05T01:55:05.577Z,28.57
2022-08-05T01:56:05.293Z,28.57
2022-08-05T01:58:12.358Z,28.62
2022-08-05T01:58:13.076Z,28.60
2022-08-05T01:59:05.286Z,28.62
2022-08-05T02:00:05.249Z,28.60
2022-08-05T02:01:05.224Z,28.64
2022-08-05T02:02:05.349Z,28.56
2022-08-05T02:03:05.230Z,28.48
2022-08-05T02:04:05.216Z,28.54
2022-08-05T02:05:05.226Z,28.47
2022-08-05T02:06:33.799Z,28.47
2022-08-05T02:07:06.151Z,28.51
2022-08-05T02:08:05.167Z,28.51
2022-08-05T02:09:05.151Z,28.51
2022-08-05T02:10:07.989Z,28.47
2022-08-05T02:11:05.100Z,28.54
2022-08-05T02:12:05.084Z,28.47
2022-08-05T02:13:05.085Z,28.51
2022-08-05T02:14:05.091Z,28.48
2022-08-05T02:15:06.032Z,28.52
2022-08-05T02:16:05.030Z,28.51
2022-08-05T02:17:05.011Z,28.51
2022-08-05T02:18:31.728Z,28.52
2022-08-05T02:19:07.002Z,28.51
2022-08-05T02:20:04.975Z,28.52
2022-08-05T02:21:05.771Z,28.48
2022-08-05T02:22:04.948Z,28.54
2022-08-05T02:23:04.952Z,28.51
2022-08-05T02:24:04.932Z,28.51
2022-08-05T02:25:04.915Z,28.42
2022-08-05T02:26:04.888Z,28.48
2022-08-05T02:27:09.112Z,28.56
2022-08-05T02:28:08.745Z,28.51
2022-08-05T02:29:04.881Z,28.54
2022-08-05T02:30:04.838Z,28.49
2022-08-05T02:31:04.821Z,28.54
2022-08-05T02:32:05.028Z,28.51
2022-08-05T02:33:04.801Z,28.54
2022-08-05T02:34:04.827Z,28.47
2022-08-05T02:35:13.695Z,28.48
2022-08-05T02:36:04.789Z,28.47
2022-08-05T02:37:04.738Z,28.45
2022-08-05T02:38:04.740Z,28.42
2022-08-05T02:39:04.805Z,28.47
2022-08-05T02:40:04.703Z,28.39
2022-08-05T02:41:06.475Z,28.51
2022-08-05T02:42:04.679Z,28.41
2022-08-05T02:43:04.663Z,28.39
2022-08-05T02:44:06.935Z,28.45
2022-08-05T02:45:04.639Z,28.35
2022-08-05T02:46:04.615Z,28.45
2022-08-05T02:47:04.615Z,28.33
2022-08-05T02:48:09.972Z,28.41
2022-08-05T02:49:04.590Z,28.39
2022-08-05T02:50:05.544Z,28.38
2022-08-05T02:51:04.628Z,28.33
2022-08-05T02:52:04.907Z,28.42
2022-08-05T02:53:04.541Z,28.38
2022-08-05T02:54:04.549Z,28.33
2022-08-05T02:55:05.204Z,28.32
2022-08-05T02:56:04.473Z,28.44
2022-08-05T02:57:05.146Z,28.41
2022-08-05T02:58:19.949Z,28.42
2022-08-05T02:59:04.459Z,28.35
2022-08-05T03:00:04.475Z,28.38
2022-08-05T03:01:04.462Z,28.39
2022-08-05T03:02:04.397Z,28.42
2022-08-05T03:03:10.326Z,28.41
2022-08-05T03:04:11.819Z,28.45
2022-08-05T03:05:04.394Z,28.30
2022-08-05T03:06:53.761Z,28.49
2022-08-05T03:07:04.327Z,28.45
2022-08-05T03:08:08.539Z,28.47
2022-08-05T03:09:04.316Z,28.42
2022-08-05T03:10:05.069Z,28.42
2022-08-05T03:11:55.323Z,28.49
2022-08-05T03:12:04.268Z,28.49
2022-08-05T03:13:27.601Z,28.44
2022-08-05T03:14:04.287Z,28.48
2022-08-05T03:15:06.831Z,28.51
2022-08-05T03:16:04.272Z,28.47
2022-08-05T03:17:08.961Z,28.47
2022-08-05T03:18:04.303Z,28.48
2022-08-05T03:19:12.694Z,28.51
2022-08-05T03:20:04.154Z,28.52
2022-08-05T03:21:04.167Z,28.49
2022-08-05T03:22:04.898Z,28.47
2022-08-05T03:23:04.165Z,28.48
2022-08-05T03:24:04.119Z,28.51
2022-08-05T03:25:18.818Z,28.47
2022-08-05T03:26:30.862Z,28.52
2022-08-05T03:27:04.053Z,28.48
2022-08-05T03:28:04.063Z,28.52
2022-08-05T03:29:04.057Z,28.54
2022-08-05T03:30:08.566Z,28.51
2022-08-05T03:31:04.027Z,28.54
2022-08-05T03:32:03.988Z,28.52
2022-08-05T03:33:03.991Z,28.62
2022-08-05T03:34:03.999Z,28.67
2022-08-05T03:35:04.634Z,28.62
2022-08-05T03:36:03.953Z,28.64
2022-08-05T03:37:03.920Z,28.62
2022-08-05T03:38:03.924Z,28.64
2022-08-05T03:39:03.998Z,28.69
2022-08-05T03:40:05.032Z,28.62
2022-08-05T03:41:08.206Z,28.64
2022-08-05T03:42:03.854Z,28.63
2022-08-05T03:43:58.474Z,28.60
2022-08-05T03:44:11.225Z,28.69
2022-08-05T03:45:21.161Z,28.69
2022-08-05T03:46:03.823Z,28.70
2022-08-05T03:47:03.782Z,28.60
2022-08-05T03:48:03.788Z,28.75
2022-08-05T03:49:03.764Z,28.69
2022-08-05T03:50:03.749Z,28.74
2022-08-05T03:52:34.905Z,28.69
2022-08-05T03:52:49.297Z,28.69
2022-08-05T03:55:50.064Z,28.69
2022-08-05T03:55:50.219Z,28.81
2022-08-05T03:56:10.874Z,28.78
2022-08-05T03:56:17.301Z,28.79
2022-08-05T03:57:16.269Z,28.79
2022-08-05T03:58:03.648Z,28.79
2022-08-05T03:59:03.664Z,28.81
2022-08-05T04:00:03.648Z,28.86
2022-08-05T04:01:04.025Z,28.86
2022-08-05T04:02:03.687Z,28.85
2022-08-05T04:03:03.581Z,28.85
2022-08-05T04:04:09.025Z,28.86
2022-08-05T04:05:03.606Z,28.94
2022-08-05T04:06:03.543Z,28.91
2022-08-05T04:07:03.877Z,29.02
2022-08-05T04:08:03.514Z,28.94
2022-08-05T04:09:03.507Z,29.08
2022-08-05T04:10:03.477Z,29.07
2022-08-05T04:11:03.478Z,29.13
2022-08-05T04:12:03.462Z,29.14
2022-08-05T04:13:04.401Z,29.19
2022-08-05T04:14:03.548Z,29.13
2022-08-05T04:15:03.407Z,29.12
2022-08-05T04:16:04.921Z,29.14
2022-08-05T04:17:03.419Z,29.14
2022-08-05T04:18:03.378Z,29.20
2022-08-05T04:19:03.384Z,29.29
2022-08-05T04:20:03.371Z,29.23
2022-08-05T04:21:03.863Z,29.17
2022-08-05T04:22:09.220Z,29.20
2022-08-05T04:23:03.307Z,29.27
2022-08-05T04:24:06.633Z,29.24
2022-08-05T04:25:03.304Z,29.23
2022-08-05T04:26:03.276Z,29.29
2022-08-05T04:27:03.244Z,29.35
2022-08-05T04:28:11.166Z,29.50
2022-08-05T04:29:07.113Z,29.47
2022-08-05T04:30:03.499Z,29.56
2022-08-05T04:31:03.198Z,29.63
2022-08-05T04:32:03.189Z,29.61
2022-08-05T04:33:03.169Z,29.75
2022-08-05T04:34:31.493Z,29.82
2022-08-05T04:35:03.143Z,29.81
2022-08-05T04:36:15.829Z,29.82
2022-08-05T04:37:03.427Z,29.93
2022-08-05T04:38:06.797Z,29.94
2022-08-05T04:39:03.154Z,30.03
2022-08-05T04:40:03.132Z,30.03
2022-08-05T04:41:03.616Z,30.03
2022-08-05T04:42:03.681Z,30.09
2022-08-05T04:43:03.044Z,30.21
2022-08-05T04:44:08.938Z,30.21
2022-08-05T04:45:03.030Z,30.30
2022-08-05T04:46:03.009Z,30.25
2022-08-05T04:47:20.115Z,30.25
2022-08-05T04:48:02.979Z,30.40
2022-08-05T04:49:02.974Z,30.47
2022-08-05T04:50:11.313Z,30.54
2022-08-05T04:51:11.332Z,30.61
2022-08-05T04:52:02.979Z,30.72
2022-08-05T04:53:02.917Z,30.73
2022-08-05T04:54:02.906Z,30.91
2022-08-05T04:55:14.209Z,30.92
2022-08-05T04:56:33.608Z,31.05
2022-08-05T04:57:02.914Z,31.15
2022-08-05T04:58:02.852Z,31.14
2022-08-05T04:59:22.009Z,31.22
2022-08-05T05:00:02.846Z,31.31
2022-08-05T05:01:02.892Z,31.43
2022-08-05T05:02:07.946Z,31.61
2022-08-05T05:03:03.934Z,31.52
2022-08-05T05:04:02.788Z,31.61
2022-08-05T05:05:03.359Z,31.66
2022-08-05T05:06:40.698Z,31.80
2022-08-05T05:07:02.779Z,31.85
2022-08-05T05:08:02.758Z,31.87
2022-08-05T05:09:02.722Z,32.01
2022-08-05T05:10:03.030Z,32.03
2022-08-05T05:11:02.717Z,32.11
2022-08-05T05:12:03.038Z,32.14
2022-08-05T05:13:04.351Z,32.26
2022-08-05T05:14:02.677Z,32.27
2022-08-05T05:15:03.642Z,32.31
2022-08-05T05:16:06.095Z,32.43
2022-08-05T05:17:03.271Z,32.40
2022-08-05T05:18:02.655Z,32.51
2022-08-05T05:19:18.823Z,32.58
2022-08-05T05:20:02.619Z,32.60
2022-08-05T05:21:03.249Z,32.58
2022-08-05T05:22:03.652Z,32.67
2022-08-05T05:23:08.064Z,32.63
2022-08-05T05:24:08.826Z,32.70
2022-08-05T05:25:16.518Z,32.73
2022-08-05T05:26:02.562Z,32.85
2022-08-05T05:27:02.522Z,32.85
2022-08-05T05:28:02.522Z,33.00
2022-08-05T05:29:02.699Z,33.08
2022-08-05T05:30:04.464Z,33.08
2022-08-05T05:31:03.146Z,33.11
2022-08-05T05:32:02.517Z,33.14
2022-08-05T05:33:03.909Z,33.28
2022-08-05T05:34:02.910Z,33.32
2022-08-05T05:35:03.120Z,33.36
2022-08-05T05:36:02.448Z,33.39
2022-08-05T05:37:03.145Z,33.50
2022-08-05T05:38:02.550Z,33.53
2022-08-05T05:39:03.722Z,33.59
2022-08-05T05:40:02.405Z,33.64
2022-08-05T05:41:02.383Z,33.71
2022-08-05T05:42:02.394Z,33.76
2022-08-05T05:43:02.359Z,33.79
2022-08-05T05:44:02.346Z,33.79
2022-08-05T05:45:03.084Z,33.87
2022-08-05T05:46:02.341Z,34.02
2022-08-05T05:47:04.452Z,33.96
2022-08-05T05:48:06.164Z,34.13
2022-08-05T05:49:06.411Z,34.18
2022-08-05T05:50:02.356Z,34.29
2022-08-05T05:51:13.018Z,34.39
2022-08-05T05:52:05.798Z,34.50
2022-08-05T05:53:02.334Z,34.57
2022-08-05T05:54:02.286Z,34.60
2022-08-05T05:55:02.279Z,34.67
2022-08-05T05:56:03.259Z,34.66
2022-08-05T05:57:02.212Z,34.75
2022-08-05T05:58:02.213Z,34.75
2022-08-05T05:59:03.079Z,34.77
2022-08-05T06:00:02.201Z,34.85
2022-08-05T06:01:12.956Z,34.89
2022-08-05T06:02:02.183Z,34.93
2022-08-05T06:03:02.158Z,34.97
2022-08-05T06:04:03.665Z,35.07
2022-08-05T06:05:03.480Z,35.15
2022-08-05T06:06:02.158Z,35.27
2022-08-05T06:07:02.171Z,35.26
2022-08-05T06:08:03.947Z,35.30
2022-08-05T06:09:02.107Z,35.48
2022-08-05T06:10:05.798Z,35.51
2022-08-05T06:11:02.114Z,35.58
2022-08-05T06:12:02.679Z,35.74
2022-08-05T06:13:02.079Z,35.76
2022-08-05T06:14:02.128Z,35.89
2022-08-05T06:15:02.065Z,35.89
2022-08-05T06:16:28.553Z,36.01
2022-08-05T06:17:22.526Z,36.16
2022-08-05T06:18:02.038Z,36.25
2022-08-05T06:19:05.743Z,36.28
2022-08-05T06:20:02.015Z,36.36
2022-08-05T06:21:02.657Z,36.45
2022-08-05T06:22:02.051Z,36.54
2022-08-05T06:23:02.086Z,36.58
2022-08-05T06:24:01.979Z,36.65
2022-08-05T06:25:59.449Z,36.64
2022-08-05T06:26:13.650Z,36.74
2022-08-05T06:27:01.978Z,36.89
2022-08-05T06:28:10.840Z,36.88
2022-08-05T06:29:03.490Z,36.96
2022-08-05T06:30:05.906Z,37.03
2022-08-05T06:31:01.924Z,37.15
2022-08-05T06:32:01.933Z,37.23
2022-08-05T06:33:01.938Z,37.33
2022-08-05T06:34:07.650Z,37.33
2022-08-05T06:35:06.014Z,37.44
2022-08-05T06:36:03.159Z,37.49
2022-08-05T06:37:01.877Z,37.49
2022-08-05T06:38:08.266Z,37.72
2022-08-05T06:39:01.950Z,37.74
2022-08-05T06:40:02.457Z,37.84
2022-08-05T06:41:01.843Z,37.92
2022-08-05T06:42:01.834Z,37.99
2022-08-05T06:43:01.826Z,37.90
2022-08-05T06:44:01.819Z,37.93
2022-08-05T06:45:06.492Z,38.14
2022-08-05T06:46:06.770Z,38.26
2022-08-05T06:47:02.351Z,38.15
2022-08-05T06:48:44.195Z,38.15
2022-08-05T06:49:02.296Z,38.20
2022-08-05T06:50:05.396Z,38.26
2022-08-05T06:51:01.766Z,38.28
2022-08-05T06:52:01.767Z,38.33
2022-08-05T06:53:03.947Z,38.38
2022-08-05T06:54:02.353Z,38.34
2022-08-05T06:55:02.489Z,38.34
2022-08-05T06:56:01.781Z,38.43
2022-08-05T06:57:56.835Z,38.45
2022-08-05T06:58:11.700Z,38.46
2022-08-05T06:59:01.711Z,38.45
2022-08-05T07:00:01.715Z,38.54
2022-08-05T07:01:01.746Z,38.48
2022-08-05T07:02:01.722Z,38.55
2022-08-05T07:03:01.718Z,38.55
2022-08-05T07:04:02.279Z,38.57
2022-08-05T07:05:01.667Z,38.57
2022-08-05T07:06:01.654Z,38.45
2022-08-05T07:07:01.665Z,38.43
2022-08-05T07:08:01.659Z,38.54
2022-08-05T07:09:04.331Z,38.43
2022-08-05T07:10:03.369Z,38.48
2022-08-05T07:11:02.001Z,38.55
2022-08-05T07:12:01.615Z,38.46
2022-08-05T07:13:01.605Z,38.55
2022-08-05T07:14:01.626Z,38.57
2022-08-05T07:15:01.599Z,38.58
2022-08-05T07:16:04.773Z,38.49
2022-08-05T07:17:58.188Z,38.62
2022-08-05T07:18:09.567Z,38.62
2022-08-05T07:19:01.591Z,38.73
2022-08-05T07:20:33.036Z,38.76
2022-08-05T07:21:04.858Z,38.84
2022-08-05T07:22:02.422Z,38.89
2022-08-05T07:23:01.546Z,39.04
2022-08-05T07:24:01.539Z,39.03
2022-08-05T07:25:24.011Z,39.11
2022-08-05T07:26:01.508Z,39.11
2022-08-05T07:27:02.953Z,39.24
2022-08-05T07:28:07.236Z,39.24
2022-08-05T07:29:01.501Z,39.26
2022-08-05T07:30:24.232Z,39.43
2022-08-05T07:31:01.489Z,39.41
2022-08-05T07:32:01.479Z,39.49
2022-08-05T07:33:01.474Z,39.51
2022-08-05T07:34:01.486Z,39.56
2022-08-05T07:35:01.452Z,39.60
2022-08-05T07:36:20.869Z,39.59
2022-08-05T07:37:01.461Z,39.63
2022-08-05T07:38:01.456Z,39.74
2022-08-05T07:39:01.489Z,39.72
2022-08-05T07:40:04.349Z,39.80
2022-08-05T07:41:16.514Z,39.78
2022-08-05T07:42:09.015Z,39.86
2022-08-05T07:43:02.319Z,39.93
2022-08-05T07:44:01.397Z,39.93
2022-08-05T07:45:01.408Z,39.97
2022-08-05T07:46:01.414Z,40.02
2022-08-05T07:47:01.398Z,40.15
2022-08-05T07:48:01.378Z,40.08
2022-08-05T07:49:06.030Z,40.12
2022-08-05T07:50:01.357Z,40.16
2022-08-05T07:51:01.352Z,40.16
2022-08-05T07:52:01.353Z,40.21
2022-08-05T07:53:01.338Z,40.14
2022-08-05T07:54:01.797Z,40.24
2022-08-05T07:55:01.346Z,40.27
2022-08-05T07:56:06.596Z,40.33
2022-08-05T07:57:17.576Z,40.33
2022-08-05T07:58:03.022Z,40.24
2022-08-05T07:59:01.299Z,40.26
2022-08-05T08:00:01.302Z,40.20
2022-08-05T08:01:01.348Z,40.12
2022-08-05T08:02:01.289Z,40.00
2022-08-05T08:03:13.627Z,39.99
2022-08-05T08:04:01.284Z,39.90
2022-08-05T08:05:01.259Z,39.94
2022-08-05T08:06:01.250Z,39.85
2022-08-05T08:07:01.251Z,39.83
2022-08-05T08:08:01.268Z,39.85
2022-08-05T08:09:01.241Z,39.75
2022-08-05T08:10:01.267Z,39.68
2022-08-05T08:11:01.237Z,39.83
2022-08-05T08:12:09.021Z,39.80
2022-08-05T08:13:01.623Z,39.74
2022-08-05T08:14:01.364Z,39.77
2022-08-05T08:15:02.632Z,39.67
2022-08-05T08:16:50.002Z,39.72
2022-08-05T08:17:01.200Z,39.74
2022-08-05T08:18:02.023Z,39.72
2022-08-05T08:19:01.194Z,39.85
2022-08-05T08:20:42.614Z,39.83
2022-08-05T08:21:03.526Z,39.80
2022-08-05T08:22:01.153Z,39.87
2022-08-05T08:23:03.247Z,39.93
2022-08-05T08:24:04.930Z,39.96
2022-08-05T08:25:03.190Z,39.96
2022-08-05T08:26:02.623Z,40.00
2022-08-05T08:27:01.778Z,40.02
2022-08-05T08:28:01.109Z,39.97
2022-08-05T08:29:22.013Z,39.97
2022-08-05T08:30:05.502Z,40.08
2022-08-05T08:31:01.085Z,40.11
2022-08-05T08:32:01.085Z,40.11
2022-08-05T08:33:02.486Z,40.18
2022-08-05T08:34:01.744Z,40.24
2022-08-05T08:35:01.077Z,40.27
2022-08-05T08:36:29.350Z,40.30
2022-08-05T08:37:03.135Z,40.44
2022-08-05T08:38:01.049Z,40.53
2022-08-05T08:39:01.671Z,40.51
2022-08-05T08:40:01.103Z,40.50
2022-08-05T08:41:01.029Z,40.51
2022-08-05T08:42:02.231Z,40.58
2022-08-05T08:45:16.465Z,40.50
2022-08-05T08:45:19.496Z,40.51
2022-08-05T08:45:23.211Z,40.50
2022-08-05T08:46:01.021Z,40.49
2022-08-05T08:47:01.019Z,40.50
2022-08-05T08:48:12.739Z,40.53
2022-08-05T08:50:14.138Z,40.58
2022-08-05T08:50:22.534Z,40.58
2022-08-05T08:51:22.084Z,40.50
2022-08-05T08:52:02.955Z,40.54
2022-08-05T08:53:00.943Z,40.54
2022-08-05T08:54:00.958Z,40.56
2022-08-05T08:55:00.974Z,40.50
2022-08-05T08:56:03.672Z,40.50
2022-08-05T08:57:00.910Z,40.50
2022-08-05T08:58:01.779Z,40.49
2022-08-05T08:59:00.901Z,40.54
2022-08-05T09:00:00.895Z,40.50
2022-08-05T09:01:00.976Z,40.53
2022-08-05T09:02:01.241Z,40.51
2022-08-05T09:03:00.899Z,40.51
2022-08-05T09:04:00.886Z,40.54
2022-08-05T09:05:17.966Z,40.51
2022-08-05T09:06:08.911Z,40.51
2022-08-05T09:07:00.853Z,40.44
2022-08-05T09:08:00.854Z,40.56
2022-08-05T09:09:01.073Z,40.53
2022-08-05T09:10:00.838Z,40.59
2022-08-05T09:11:00.840Z,40.66
2022-08-05T09:12:08.594Z,40.70
2022-08-05T09:13:05.274Z,40.69
2022-08-05T09:14:54.396Z,40.78
2022-08-05T09:15:05.964Z,40.73
2022-08-05T09:16:00.799Z,40.77
2022-08-05T09:17:00.812Z,40.75
2022-08-05T09:18:00.793Z,40.78
2022-08-05T09:19:00.803Z,40.77
2022-08-05T09:20:02.342Z,40.85
2022-08-05T09:21:01.327Z,40.81
2022-08-05T09:22:22.326Z,40.80
2022-08-05T09:23:05.259Z,40.77
2022-08-05T09:24:02.551Z,40.75
2022-08-05T09:25:00.765Z,40.73
2022-08-05T09:26:06.181Z,40.69
2022-08-05T09:27:00.727Z,40.66
2022-08-05T09:28:04.001Z,40.73
2022-08-05T09:29:00.738Z,40.65
2022-08-05T09:30:06.021Z,40.62
2022-08-05T09:31:00.701Z,40.62
2022-08-05T09:32:42.299Z,40.62
2022-08-05T09:33:00.684Z,40.54
2022-08-05T09:34:00.703Z,40.59
2022-08-05T09:35:00.685Z,40.59
2022-08-05T09:36:04.769Z,40.56
2022-08-05T09:37:00.720Z,40.51
2022-08-05T09:38:17.655Z,40.59
2022-08-05T09:39:00.688Z,40.58
2022-08-05T09:40:00.731Z,40.63
2022-08-05T09:41:00.663Z,40.51
2022-08-05T09:42:00.642Z,40.61
2022-08-05T09:43:00.652Z,40.51
2022-08-05T09:44:01.299Z,40.46
2022-08-05T09:45:17.870Z,40.49
2022-08-05T09:46:07.105Z,40.46
2022-08-05T09:47:00.598Z,40.41
2022-08-05T09:48:00.598Z,40.46
2022-08-05T09:49:08.054Z,40.34
2022-08-05T09:50:03.304Z,40.30
2022-08-05T09:51:00.592Z,40.27
2022-08-05T09:52:00.639Z,40.23
2022-08-05T09:53:00.552Z,40.16
2022-08-05T09:54:00.647Z,40.09
2022-08-05T09:55:00.558Z,40.09
2022-08-05T09:56:12.676Z,40.05
2022-08-05T09:57:01.220Z,40.12
2022-08-05T09:58:00.716Z,40.05
2022-08-05T09:59:00.536Z,40.08
2022-08-05T10:00:03.624Z,40.20
2022-08-05T10:01:00.503Z,40.23
2022-08-05T10:02:00.504Z,40.16
2022-08-05T10:03:00.562Z,40.23
2022-08-05T10:04:00.679Z,40.21
2022-08-05T10:05:00.497Z,40.21
2022-08-05T10:06:03.630Z,40.30
2022-08-05T10:07:01.639Z,40.15
2022-08-05T10:08:34.948Z,40.26
2022-08-05T10:09:00.449Z,40.24
2022-08-05T10:10:14.418Z,40.27
2022-08-05T10:11:00.451Z,40.27
2022-08-05T10:12:02.856Z,40.23
2022-08-05T10:13:00.446Z,40.24
2022-08-05T10:14:00.459Z,40.18
2022-08-05T10:15:00.468Z,40.23
2022-08-05T10:16:00.404Z,40.26
2022-08-05T10:17:00.418Z,40.23
2022-08-05T10:18:00.406Z,40.30
2022-08-05T10:19:00.410Z,40.24
2022-08-05T10:20:03.831Z,40.20
2022-08-05T10:21:06.173Z,40.11
2022-08-05T10:22:01.339Z,40.04
2022-08-05T10:23:00.347Z,40.02
2022-08-05T10:24:01.036Z,40.12
2022-08-05T10:25:00.356Z,40.15
2022-08-05T10:26:00.360Z,40.08
2022-08-05T10:27:01.257Z,40.12
2022-08-05T10:28:13.459Z,40.15
2022-08-05T10:29:00.479Z,40.14
2022-08-05T10:30:06.784Z,40.18
2022-08-05T10:32:48.712Z,40.08
2022-08-05T10:32:51.847Z,40.08
2022-08-05T10:33:02.544Z,40.11
2022-08-05T10:34:00.309Z,40.06
2022-08-05T10:35:00.839Z,40.09
2022-08-05T10:36:00.294Z,40.05
2022-08-05T10:37:00.844Z,40.00
2022-08-05T10:38:00.306Z,39.97
2022-08-05T10:39:00.284Z,39.94
2022-08-05T10:40:18.159Z,40.02
2022-08-05T10:41:00.295Z,39.97
2022-08-05T10:42:01.234Z,39.97
2022-08-05T10:43:00.244Z,39.96
2022-08-05T10:44:00.239Z,39.99
2022-08-05T10:45:00.831Z,40.00
2022-08-05T10:46:06.761Z,39.94
2022-08-05T10:47:00.199Z,39.83
2022-08-05T10:48:31.305Z,39.85
2022-08-05T10:49:09.624Z,39.72
2022-08-05T10:50:22.363Z,39.74
2022-08-05T10:51:00.187Z,39.72
2022-08-05T10:52:02.554Z,39.74
2022-08-05T10:53:00.230Z,39.77
2022-08-05T10:54:01.894Z,39.67
2022-08-05T10:55:00.160Z,39.74
2022-08-05T10:56:05.486Z,39.67
2022-08-05T10:57:00.139Z,39.74
2022-08-05T10:58:00.141Z,39.75
2022-08-05T10:59:07.336Z,39.75
2022-08-05T11:00:04.429Z,39.80
2022-08-05T11:01:02.839Z,39.71
2022-08-05T11:02:05.447Z,39.74
2022-08-05T11:03:00.344Z,39.72
2022-08-05T11:04:00.170Z,39.72
2022-08-05T11:05:00.249Z,39.78
2022-08-05T11:06:00.074Z,39.72
2022-08-05T11:07:01.334Z,39.87
2022-08-05T11:08:02.893Z,39.75
2022-08-05T11:09:00.042Z,39.78
2022-08-05T11:10:04.014Z,39.83
2022-08-05T11:11:00.988Z,39.87
2022-08-05T11:12:00.029Z,39.90
2022-08-05T11:13:01.072Z,39.94
2022-08-05T11:14:00.032Z,39.94
2022-08-05T11:15:01.346Z,39.94
2022-08-05T11:16:02.119Z,40.00
2022-08-05T11:17:08.063Z,40.08
2022-08-05T11:18:03.901Z,40.09
2022-08-05T11:18:59.984Z,40.18
2022-08-05T11:20:10.193Z,40.15
2022-08-05T11:20:59.996Z,40.20
2022-08-05T11:21:59.954Z,40.26
2022-08-05T11:23:06.038Z,40.27
2022-08-05T11:24:04.528Z,40.23
2022-08-05T11:25:16.788Z,40.28
2022-08-05T11:26:08.418Z,40.30
2022-08-05T11:26:59.939Z,40.30
2022-08-05T11:28:00.678Z,40.35
2022-08-05T11:29:12.123Z,40.49
2022-08-05T11:30:00.883Z,40.50
2022-08-05T11:30:59.888Z,40.43
2022-08-05T11:32:00.779Z,40.51
2022-08-05T11:32:59.879Z,40.56
2022-08-05T11:33:59.884Z,40.54
2022-08-05T11:34:59.874Z,40.56
2022-08-05T11:36:08.132Z,40.53
2022-08-05T11:36:59.851Z,40.61
2022-08-05T11:38:27.852Z,40.61
2022-08-05T11:39:00.134Z,40.63
2022-08-05T11:40:03.226Z,40.68
2022-08-05T11:41:14.104Z,40.68
2022-08-05T11:42:04.284Z,40.66
2022-08-05T11:42:59.835Z,40.59
2022-08-05T11:44:05.742Z,40.59
2022-08-05T11:44:59.801Z,40.59
2022-08-05T11:46:27.233Z,40.54
2022-08-05T11:47:11.824Z,40.56
2022-08-05T11:47:59.797Z,40.53
2022-08-05T11:48:59.782Z,40.53
2022-08-05T11:50:00.419Z,40.56
2022-08-05T11:50:59.795Z,40.66
2022-08-05T11:51:59.781Z,40.61
2022-08-05T11:52:59.782Z,40.68
2022-08-05T11:53:59.761Z,40.69
2022-08-05T11:55:07.740Z,40.81
2022-08-05T11:55:59.748Z,40.78
2022-08-05T11:57:00.394Z,40.87
2022-08-05T11:58:10.320Z,40.90
2022-08-05T11:58:59.736Z,40.91
2022-08-05T11:59:59.825Z,40.91
2022-08-05T12:00:59.711Z,41.00
2022-08-05T12:01:59.713Z,41.04
2022-08-05T12:02:59.740Z,41.16
2022-08-05T12:03:59.703Z,41.09
2022-08-05T12:05:00.138Z,41.12
2022-08-05T12:05:59.694Z,41.12
2022-08-05T12:06:59.692Z,41.10
2022-08-05T12:08:08.179Z,41.14
2022-08-05T12:08:59.665Z,41.15
2022-08-05T12:10:04.394Z,41.18
2022-08-05T12:10:59.645Z,41.18
2022-08-05T12:11:59.636Z,41.12
2022-08-05T12:13:00.413Z,41.14
2022-08-05T12:14:04.334Z,41.16
2022-08-05T12:14:59.655Z,41.03
2022-08-05T12:15:59.661Z,41.06
2022-08-05T12:16:59.610Z,40.95
2022-08-05T12:18:04.341Z,40.90
2022-08-05T12:18:59.601Z,40.91
2022-08-05T12:20:27.718Z,40.90
2022-08-05T12:20:59.599Z,40.85
2022-08-05T12:21:59.608Z,40.90
2022-08-05T12:22:59.600Z,40.87
2022-08-05T12:24:00.077Z,40.90
2022-08-05T12:24:59.566Z,40.95
2022-08-05T12:25:59.550Z,40.92
2022-08-05T12:26:59.553Z,40.96
2022-08-05T12:27:59.549Z,40.90
2022-08-05T12:28:59.543Z,40.92
2022-08-05T12:29:59.553Z,40.92
2022-08-05T12:31:02.433Z,41.04
2022-08-05T12:32:02.167Z,41.02
2022-08-05T12:33:07.422Z,40.90
2022-08-05T12:33:59.501Z,40.97
2022-08-05T12:34:59.504Z,40.92
2022-08-05T12:35:59.614Z,40.96
2022-08-05T12:36:59.494Z,40.87
2022-08-05T12:37:59.500Z,40.84
2022-08-05T12:38:59.555Z,40.78
2022-08-05T12:40:03.732Z,40.72
2022-08-05T12:41:00.439Z,40.72
2022-08-05T12:41:59.454Z,40.73
2022-08-05T12:42:59.460Z,40.68
2022-08-05T12:43:59.441Z,40.61
2022-08-05T12:44:59.446Z,40.59
2022-08-05T12:45:59.452Z,40.51
2022-08-05T12:46:59.440Z,40.61
2022-08-05T12:48:01.777Z,40.50
2022-08-05T12:48:59.465Z,40.53
2022-08-05T12:50:03.935Z,40.51
2022-08-05T12:50:59.410Z,40.43
2022-08-05T12:52:12.981Z,40.41